sensor_id;sensor_type;location;lat;lon;timestamp;P1;durP1;ratioP1;P2;durP2;ratioP2
23402;SDS011;11874;48.228;11.684;2023-03-02T08:04:14;29.20;;;15.30;;
23402;SDS011;11874;48.228;11.684;2023-03-02T08:06:42;25.45;;;13.80;;
23402;SDS011;11874;48.228;11.684;2023-03-02T08:09:10;31.50;;;16.33;;
23402;SDS011;11874;48.228;11.684;2023-03-02T08:11:41;28.38;;;15.65;;
23402;SDS011;11874;48.228;11.684;2023-03-02T08:14:10;35.30;;;15.43;;
23402;SDS011;11874;48.228;11.684;2023-03-02T08:16:37;26.92;;;15.27;;
23402;SDS011;11874;48.228;11.684;2023-03-02T08:19:06;27.00;;;14.80;;
23402;SDS011;11874;48.228;11.684;2023-03-02T08:21:35;26.05;;;14.40;;
23402;SDS011;11874;48.228;11.684;2023-03-02T08:24:03;28.50;;;14.80;;
23402;SDS011;11874;48.228;11.684;2023-03-02T08:26:31;29.50;;;13.65;;
23402;SDS011;11874;48.228;11.684;2023-03-02T08:28:59;28.20;;;15.02;;
23402;SDS011;11874;48.228;11.684;2023-03-02T08:31:27;27.85;;;14.95;;
23402;SDS011;11874;48.228;11.684;2023-03-02T08:33:55;28.33;;;14.57;;
23402;SDS011;11874;48.228;11.684;2023-03-02T08:36:24;24.90;;;14.05;;
23402;SDS011;11874;48.228;11.684;2023-03-02T08:38:53;28.95;;;14.98;;
23402;SDS011;11874;48.228;11.684;2023-03-02T08:41:22;27.90;;;13.73;;
23402;SDS011;11874;48.228;11.684;2023-03-02T08:43:51;26.38;;;13.52;;
23402;SDS011;11874;48.228;11.684;2023-03-02T08:46:19;26.17;;;14.77;;
23402;SDS011;11874;48.228;11.684;2023-03-02T08:48:48;27.00;;;14.65;;
23402;SDS011;11874;48.228;11.684;2023-03-02T08:51:18;24.65;;;14.32;;
23402;SDS011;11874;48.228;11.684;2023-03-02T08:53:48;25.52;;;14.88;;
23402;SDS011;11874;48.228;11.684;2023-03-02T08:56:21;24.38;;;13.57;;
23402;SDS011;11874;48.228;11.684;2023-03-02T08:58:51;19.23;;;10.33;;
23402;SDS011;11874;48.228;11.684;2023-03-02T09:01:21;30.70;;;14.88;;
23402;SDS011;11874;48.228;11.684;2023-03-02T09:03:50;25.73;;;14.43;;
23402;SDS011;11874;48.228;11.684;2023-03-02T09:06:18;25.85;;;14.82;;
23402;SDS011;11874;48.228;11.684;2023-03-02T09:08:46;23.92;;;14.95;;
23402;SDS011;11874;48.228;11.684;2023-03-02T09:11:15;24.85;;;14.68;;
23402;SDS011;11874;48.228;11.684;2023-03-02T09:13:44;28.25;;;15.85;;
23402;SDS011;11874;48.228;11.684;2023-03-02T09:16:12;27.55;;;15.55;;
23402;SDS011;11874;48.228;11.684;2023-03-02T09:18:41;30.50;;;14.50;;
23402;SDS011;11874;48.228;11.684;2023-03-02T09:21:08;22.92;;;14.18;;
23402;SDS011;11874;48.228;11.684;2023-03-02T09:23:36;33.63;;;15.43;;
23402;SDS011;11874;48.228;11.684;2023-03-02T09:26:05;25.15;;;13.98;;
23402;SDS011;11874;48.228;11.684;2023-03-02T09:28:33;28.02;;;14.95;;
23402;SDS011;11874;48.228;11.684;2023-03-02T09:31:04;24.80;;;14.32;;
23402;SDS011;11874;48.228;11.684;2023-03-02T09:33:33;26.25;;;14.52;;
23402;SDS011;11874;48.228;11.684;2023-03-02T09:36:04;27.17;;;15.02;;
23402;SDS011;11874;48.228;11.684;2023-03-02T09:38:32;24.73;;;14.80;;
23402;SDS011;11874;48.228;11.684;2023-03-02T09:41:06;28.85;;;14.60;;
23402;SDS011;11874;48.228;11.684;2023-03-02T09:43:56;25.48;;;14.27;;
23402;SDS011;11874;48.228;11.684;2023-03-02T09:46:38;28.05;;;15.85;;
23402;SDS011;11874;48.228;11.684;2023-03-02T09:49:14;31.23;;;14.93;;
23402;SDS011;11874;48.228;11.684;2023-03-02T09:51:49;26.70;;;13.38;;
23402;SDS011;11874;48.228;11.684;2023-03-02T09:54:28;22.55;;;13.60;;
23402;SDS011;11874;48.228;11.684;2023-03-02T09:56:57;22.10;;;12.82;;
23402;SDS011;11874;48.228;11.684;2023-03-02T09:59:26;28.05;;;15.15;;
23402;SDS011;11874;48.228;11.684;2023-03-02T10:01:58;27.85;;;14.30;;
23402;SDS011;11874;48.228;11.684;2023-03-02T10:04:31;24.40;;;14.55;;
23402;SDS011;11874;48.228;11.684;2023-03-02T10:07:09;24.48;;;14.38;;
23402;SDS011;11874;48.228;11.684;2023-03-02T10:09:39;28.35;;;14.63;;
23402;SDS011;11874;48.228;11.684;2023-03-02T10:12:13;26.05;;;14.13;;
23402;SDS011;11874;48.228;11.684;2023-03-02T10:15:07;28.50;;;14.90;;
23402;SDS011;11874;48.228;11.684;2023-03-02T10:17:45;22.10;;;13.50;;
23402;SDS011;11874;48.228;11.684;2023-03-02T10:20:23;22.15;;;12.57;;
23402;SDS011;11874;48.228;11.684;2023-03-02T10:23:01;23.10;;;13.30;;
23402;SDS011;11874;48.228;11.684;2023-03-02T10:25:37;25.58;;;13.45;;
23402;SDS011;11874;48.228;11.684;2023-03-02T10:28:13;20.45;;;12.95;;
23402;SDS011;11874;48.228;11.684;2023-03-02T10:30:45;23.85;;;12.88;;
23402;SDS011;11874;48.228;11.684;2023-03-02T10:33:18;34.15;;;14.40;;
23402;SDS011;11874;48.228;11.684;2023-03-02T10:35:50;22.90;;;13.68;;
23402;SDS011;11874;48.228;11.684;2023-03-02T10:38:20;23.00;;;13.45;;
23402;SDS011;11874;48.228;11.684;2023-03-02T10:40:49;19.35;;;12.80;;
23402;SDS011;11874;48.228;11.684;2023-03-02T10:43:25;23.02;;;12.82;;
23402;SDS011;11874;48.228;11.684;2023-03-02T10:45:57;25.85;;;13.55;;
23402;SDS011;11874;48.228;11.684;2023-03-02T10:48:27;24.60;;;14.30;;
23402;SDS011;11874;48.228;11.684;2023-03-02T10:50:56;27.85;;;14.07;;
23402;SDS011;11874;48.228;11.684;2023-03-02T10:53:25;20.67;;;13.07;;
23402;SDS011;11874;48.228;11.684;2023-03-02T10:55:54;24.40;;;12.95;;
23402;SDS011;11874;48.228;11.684;2023-03-02T10:58:23;21.08;;;12.02;;
23402;SDS011;11874;48.228;11.684;2023-03-02T11:00:56;22.17;;;12.80;;
23402;SDS011;11874;48.228;11.684;2023-03-02T11:03:26;25.35;;;12.77;;
23402;SDS011;11874;48.228;11.684;2023-03-02T11:05:56;23.77;;;13.27;;
23402;SDS011;11874;48.228;11.684;2023-03-02T11:08:26;18.50;;;12.05;;
23402;SDS011;11874;48.228;11.684;2023-03-02T11:10:57;23.52;;;12.93;;
23402;SDS011;11874;48.228;11.684;2023-03-02T11:13:28;17.77;;;11.77;;
23402;SDS011;11874;48.228;11.684;2023-03-02T11:15:58;29.58;;;12.65;;
23402;SDS011;11874;48.228;11.684;2023-03-02T11:18:30;19.30;;;11.20;;
23402;SDS011;11874;48.228;11.684;2023-03-02T11:21:01;20.98;;;10.63;;
23402;SDS011;11874;48.228;11.684;2023-03-02T11:23:38;18.23;;;11.10;;
23402;SDS011;11874;48.228;11.684;2023-03-02T11:26:12;20.88;;;10.38;;
23402;SDS011;11874;48.228;11.684;2023-03-02T11:28:45;68.85;;;42.53;;
23402;SDS011;11874;48.228;11.684;2023-03-02T11:31:21;87.65;;;53.05;;
23402;SDS011;11874;48.228;11.684;2023-03-02T11:34:01;36.15;;;24.23;;
23402;SDS011;11874;48.228;11.684;2023-03-02T11:36:46;24.02;;;14.18;;
23402;SDS011;11874;48.228;11.684;2023-03-02T11:39:24;18.00;;;11.80;;
23402;SDS011;11874;48.228;11.684;2023-03-02T11:41:57;21.90;;;10.82;;
23402;SDS011;11874;48.228;11.684;2023-03-02T11:44:25;17.02;;;9.70;;
23402;SDS011;11874;48.228;11.684;2023-03-02T11:46:56;18.40;;;10.45;;
23402;SDS011;11874;48.228;11.684;2023-03-02T11:49:31;18.35;;;10.65;;
23402;SDS011;11874;48.228;11.684;2023-03-02T11:52:04;20.30;;;11.18;;
23402;SDS011;11874;48.228;11.684;2023-03-02T11:54:42;19.73;;;10.40;;
23402;SDS011;11874;48.228;11.684;2023-03-02T11:57:16;20.15;;;10.55;;
23402;SDS011;11874;48.228;11.684;2023-03-02T11:59:47;18.75;;;10.90;;
23402;SDS011;11874;48.228;11.684;2023-03-02T12:02:16;17.45;;;10.13;;
23402;SDS011;11874;48.228;11.684;2023-03-02T12:04:47;24.58;;;10.88;;
23402;SDS011;11874;48.228;11.684;2023-03-02T12:07:17;14.95;;;10.18;;
23402;SDS011;11874;48.228;11.684;2023-03-02T12:10:01;21.23;;;11.07;;
23402;SDS011;11874;48.228;11.684;2023-03-02T12:12:32;16.48;;;9.98;;
23402;SDS011;11874;48.228;11.684;2023-03-02T12:18:13;21.77;;;11.15;;
23402;SDS011;11874;48.228;11.684;2023-03-02T12:20:59;21.95;;;11.10;;
23402;SDS011;11874;48.228;11.684;2023-03-02T12:23:28;17.58;;;10.65;;
23402;SDS011;11874;48.228;11.684;2023-03-02T12:26:01;21.80;;;11.50;;
23402;SDS011;11874;48.228;11.684;2023-03-02T12:28:32;19.60;;;11.23;;
23402;SDS011;11874;48.228;11.684;2023-03-02T12:31:06;19.20;;;11.05;;
23402;SDS011;11874;48.228;11.684;2023-03-02T12:33:39;20.92;;;11.43;;
23402;SDS011;11874;48.228;11.684;2023-03-02T12:36:17;21.27;;;11.32;;
23402;SDS011;11874;48.228;11.684;2023-03-02T12:38:51;15.90;;;9.45;;
23402;SDS011;11874;48.228;11.684;2023-03-02T12:41:38;20.50;;;10.85;;
23402;SDS011;11874;48.228;11.684;2023-03-02T12:44:28;12.80;;;9.35;;
23402;SDS011;11874;48.228;11.684;2023-03-02T12:47:11;14.18;;;9.90;;
23402;SDS011;11874;48.228;11.684;2023-03-02T12:49:46;13.63;;;9.50;;
23402;SDS011;11874;48.228;11.684;2023-03-02T12:52:19;14.38;;;9.93;;
23402;SDS011;11874;48.228;11.684;2023-03-02T12:54:57;13.02;;;9.20;;
23402;SDS011;11874;48.228;11.684;2023-03-02T12:57:27;16.83;;;10.00;;
23402;SDS011;11874;48.228;11.684;2023-03-02T12:59:56;14.27;;;11.15;;
23402;SDS011;11874;48.228;11.684;2023-03-02T13:02:26;14.55;;;10.18;;
23402;SDS011;11874;48.228;11.684;2023-03-02T13:04:56;13.43;;;10.23;;
23402;SDS011;11874;48.228;11.684;2023-03-02T13:07:27;15.88;;;10.32;;
23402;SDS011;11874;48.228;11.684;2023-03-02T13:10:02;15.52;;;10.35;;
23402;SDS011;11874;48.228;11.684;2023-03-02T13:12:34;19.85;;;11.07;;
23402;SDS011;11874;48.228;11.684;2023-03-02T13:15:10;15.05;;;11.32;;
23402;SDS011;11874;48.228;11.684;2023-03-02T13:17:41;17.60;;;11.52;;
23402;SDS011;11874;48.228;11.684;2023-03-02T13:20:12;14.57;;;10.85;;
23402;SDS011;11874;48.228;11.684;2023-03-02T13:22:42;17.50;;;11.15;;
23402;SDS011;11874;48.228;11.684;2023-03-02T13:25:19;14.30;;;10.82;;
23402;SDS011;11874;48.228;11.684;2023-03-02T13:27:53;15.23;;;10.88;;
23402;SDS011;11874;48.228;11.684;2023-03-02T13:30:24;16.67;;;11.55;;
23402;SDS011;11874;48.228;11.684;2023-03-02T13:32:56;15.02;;;11.50;;
23402;SDS011;11874;48.228;11.684;2023-03-02T13:35:28;13.50;;;10.63;;
23402;SDS011;11874;48.228;11.684;2023-03-02T13:38:00;12.60;;;11.00;;
23402;SDS011;11874;48.228;11.684;2023-03-02T13:40:32;15.55;;;12.07;;
23402;SDS011;11874;48.228;11.684;2023-03-02T13:43:01;15.02;;;11.00;;
23402;SDS011;11874;48.228;11.684;2023-03-02T13:45:33;12.73;;;11.35;;
23402;SDS011;11874;48.228;11.684;2023-03-02T13:48:11;16.35;;;11.40;;
23402;SDS011;11874;48.228;11.684;2023-03-02T13:50:48;13.13;;;11.35;;
23402;SDS011;11874;48.228;11.684;2023-03-02T13:53:20;14.98;;;11.35;;
23402;SDS011;11874;48.228;11.684;2023-03-02T13:55:49;13.80;;;10.48;;
23402;SDS011;11874;48.228;11.684;2023-03-02T13:58:19;12.60;;;10.45;;
23402;SDS011;11874;48.228;11.684;2023-03-02T14:00:49;13.77;;;10.52;;
23402;SDS011;11874;48.228;11.684;2023-03-02T14:03:22;10.73;;;9.63;;
23402;SDS011;11874;48.228;11.684;2023-03-02T14:05:52;13.90;;;9.68;;
23402;SDS011;11874;48.228;11.684;2023-03-02T14:08:22;11.50;;;10.20;;
23402;SDS011;11874;48.228;11.684;2023-03-02T14:10:51;11.68;;;10.48;;
23402;SDS011;11874;48.228;11.684;2023-03-02T14:13:22;15.77;;;11.52;;
23402;SDS011;11874;48.228;11.684;2023-03-02T14:15:52;14.90;;;10.43;;
23402;SDS011;11874;48.228;11.684;2023-03-02T14:18:25;10.52;;;9.43;;
23402;SDS011;11874;48.228;11.684;2023-03-02T14:20:57;11.30;;;9.93;;
23402;SDS011;11874;48.228;11.684;2023-03-02T14:23:26;13.70;;;10.63;;
23402;SDS011;11874;48.228;11.684;2023-03-02T14:25:54;12.77;;;9.35;;
23402;SDS011;11874;48.228;11.684;2023-03-02T14:28:24;13.60;;;10.90;;
23402;SDS011;11874;48.228;11.684;2023-03-02T14:30:55;14.52;;;10.85;;
23402;SDS011;11874;48.228;11.684;2023-03-02T14:33:24;15.75;;;9.43;;
23402;SDS011;11874;48.228;11.684;2023-03-02T14:35:53;13.93;;;10.20;;
23402;SDS011;11874;48.228;11.684;2023-03-02T14:38:23;11.73;;;9.23;;
23402;SDS011;11874;48.228;11.684;2023-03-02T14:40:55;15.88;;;10.68;;
23402;SDS011;11874;48.228;11.684;2023-03-02T14:43:23;12.02;;;10.73;;
23402;SDS011;11874;48.228;11.684;2023-03-02T14:45:52;15.52;;;10.30;;
23402;SDS011;11874;48.228;11.684;2023-03-02T14:48:20;14.68;;;10.27;;
23402;SDS011;11874;48.228;11.684;2023-03-02T14:50:48;15.77;;;11.02;;
23402;SDS011;11874;48.228;11.684;2023-03-02T14:53:25;16.25;;;9.90;;
23402;SDS011;11874;48.228;11.684;2023-03-02T14:55:57;11.35;;;9.85;;
23402;SDS011;11874;48.228;11.684;2023-03-02T14:58:26;15.32;;;10.18;;
23402;SDS011;11874;48.228;11.684;2023-03-02T15:03:25;12.38;;;9.15;;
23402;SDS011;11874;48.228;11.684;2023-03-02T15:05:54;11.05;;;9.25;;
23402;SDS011;11874;48.228;11.684;2023-03-02T15:08:27;13.30;;;9.65;;
23402;SDS011;11874;48.228;11.684;2023-03-02T15:10:57;15.73;;;9.50;;
23402;SDS011;11874;48.228;11.684;2023-03-02T15:13:25;12.18;;;8.90;;
23402;SDS011;11874;48.228;11.684;2023-03-02T15:15:53;16.85;;;10.57;;
23402;SDS011;11874;48.228;11.684;2023-03-02T15:18:21;20.70;;;11.00;;
23402;SDS011;11874;48.228;11.684;2023-03-02T15:20:49;15.52;;;10.55;;
23402;SDS011;11874;48.228;11.684;2023-03-02T15:23:17;14.60;;;10.02;;
23402;SDS011;11874;48.228;11.684;2023-03-02T15:25:45;19.58;;;11.18;;
23402;SDS011;11874;48.228;11.684;2023-03-02T15:28:15;15.52;;;10.38;;
23402;SDS011;11874;48.228;11.684;2023-03-02T15:30:44;17.25;;;9.95;;
23402;SDS011;11874;48.228;11.684;2023-03-02T15:33:12;18.35;;;10.57;;
23402;SDS011;11874;48.228;11.684;2023-03-02T15:35:40;15.68;;;10.52;;
23402;SDS011;11874;48.228;11.684;2023-03-02T15:38:09;16.77;;;10.18;;
23402;SDS011;11874;48.228;11.684;2023-03-02T15:40:37;14.88;;;11.00;;
23402;SDS011;11874;48.228;11.684;2023-03-02T15:43:05;10.95;;;8.70;;
23402;SDS011;11874;48.228;11.684;2023-03-02T15:45:34;16.92;;;9.35;;
23402;SDS011;11874;48.228;11.684;2023-03-02T15:48:03;15.75;;;8.80;;
23402;SDS011;11874;48.228;11.684;2023-03-02T15:50:31;13.57;;;8.77;;
23402;SDS011;11874;48.228;11.684;2023-03-02T15:52:59;14.75;;;8.50;;
23402;SDS011;11874;48.228;11.684;2023-03-02T15:55:27;14.38;;;9.10;;
23402;SDS011;11874;48.228;11.684;2023-03-02T15:57:54;15.40;;;8.50;;
23402;SDS011;11874;48.228;11.684;2023-03-02T16:00:25;19.08;;;8.80;;
23402;SDS011;11874;48.228;11.684;2023-03-02T21:14:18;49.30;;;20.77;;
23402;SDS011;11874;48.228;11.684;2023-03-02T21:16:46;48.55;;;20.40;;
23402;SDS011;11874;48.228;11.684;2023-03-02T21:19:14;53.15;;;22.85;;
23402;SDS011;11874;48.228;11.684;2023-03-02T21:21:44;47.80;;;23.30;;
23402;SDS011;11874;48.228;11.684;2023-03-02T21:24:13;47.88;;;22.05;;
23402;SDS011;11874;48.228;11.684;2023-03-02T21:26:42;47.13;;;23.05;;
23402;SDS011;11874;48.228;11.684;2023-03-02T21:29:11;52.10;;;23.33;;
23402;SDS011;11874;48.228;11.684;2023-03-02T21:31:41;48.63;;;22.23;;
23402;SDS011;11874;48.228;11.684;2023-03-02T21:34:10;49.92;;;22.70;;
23402;SDS011;11874;48.228;11.684;2023-03-02T21:36:39;55.60;;;24.55;;
23402;SDS011;11874;48.228;11.684;2023-03-02T21:39:07;50.78;;;23.25;;
23402;SDS011;11874;48.228;11.684;2023-03-02T21:41:36;50.60;;;23.42;;
23402;SDS011;11874;48.228;11.684;2023-03-02T21:44:05;52.28;;;23.25;;
23402;SDS011;11874;48.228;11.684;2023-03-02T21:46:34;47.85;;;22.55;;
23402;SDS011;11874;48.228;11.684;2023-03-02T21:49:04;53.00;;;23.75;;
23402;SDS011;11874;48.228;11.684;2023-03-02T21:51:32;54.20;;;23.50;;
23402;SDS011;11874;48.228;11.684;2023-03-02T21:54:00;50.97;;;24.10;;
23402;SDS011;11874;48.228;11.684;2023-03-02T21:56:28;48.63;;;23.15;;
23402;SDS011;11874;48.228;11.684;2023-03-02T21:58:56;52.38;;;22.65;;
23402;SDS011;11874;48.228;11.684;2023-03-02T22:01:24;45.00;;;22.95;;
23402;SDS011;11874;48.228;11.684;2023-03-02T22:03:52;50.75;;;23.77;;
23402;SDS011;11874;48.228;11.684;2023-03-02T22:06:22;49.72;;;23.85;;
23402;SDS011;11874;48.228;11.684;2023-03-02T22:08:52;50.03;;;23.15;;
23402;SDS011;11874;48.228;11.684;2023-03-02T22:11:21;48.97;;;22.65;;
23402;SDS011;11874;48.228;11.684;2023-03-02T22:13:51;50.70;;;23.35;;
23402;SDS011;11874;48.228;11.684;2023-03-02T22:16:21;49.33;;;24.08;;
23402;SDS011;11874;48.228;11.684;2023-03-02T22:18:52;49.20;;;23.73;;
23402;SDS011;11874;48.228;11.684;2023-03-02T22:21:34;53.75;;;24.58;;
23402;SDS011;11874;48.228;11.684;2023-03-02T22:24:10;55.05;;;25.05;;
23402;SDS011;11874;48.228;11.684;2023-03-02T22:26:44;51.42;;;23.40;;
23402;SDS011;11874;48.228;11.684;2023-03-02T22:29:14;56.22;;;24.60;;
23402;SDS011;11874;48.228;11.684;2023-03-02T22:31:44;55.85;;;24.98;;
23402;SDS011;11874;48.228;11.684;2023-03-02T22:34:15;48.25;;;22.80;;
23402;SDS011;11874;48.228;11.684;2023-03-02T22:36:48;49.95;;;23.83;;
23402;SDS011;11874;48.228;11.684;2023-03-02T22:39:17;55.25;;;24.40;;
